sensor_id;sensor_type;location;lat;lon;timestamp;P1;durP1;ratioP1;P2;durP2;ratioP2
3726;SDS011;1879;45.876;12.300;2023-05-10T00:00:23;3.90;;;3.50;;
3726;SDS011;1879;45.876;12.300;2023-05-10T00:02:50;3.83;;;3.40;;
3726;SDS011;1879;45.876;12.300;2023-05-10T00:05:19;4.40;;;3.50;;
3726;SDS011;1879;45.876;12.300;2023-05-10T00:07:46;4.10;;;3.30;;
3726;SDS011;1879;45.876;12.300;2023-05-10T00:10:13;3.07;;;2.77;;
3726;SDS011;1879;45.876;12.300;2023-05-10T00:12:40;6.43;;;3.70;;
3726;SDS011;1879;45.876;12.300;2023-05-10T00:15:07;3.93;;;2.90;;
3726;SDS011;1879;45.876;12.300;2023-05-10T00:17:35;3.33;;;3.00;;
3726;SDS011;1879;45.876;12.300;2023-05-10T00:20:02;4.67;;;3.33;;
3726;SDS011;1879;45.876;12.300;2023-05-10T00:22:31;3.60;;;3.30;;
3726;SDS011;1879;45.876;12.300;2023-05-10T00:24:58;3.27;;;2.97;;
3726;SDS011;1879;45.876;12.300;2023-05-10T00:27:25;6.20;;;3.30;;
3726;SDS011;1879;45.876;12.300;2023-05-10T00:29:52;4.00;;;3.50;;
3726;SDS011;1879;45.876;12.300;2023-05-10T00:32:19;3.77;;;3.37;;
3726;SDS011;1879;45.876;12.300;2023-05-10T00:34:46;3.77;;;3.10;;
3726;SDS011;1879;45.876;12.300;2023-05-10T00:37:13;4.60;;;2.43;;
3726;SDS011;1879;45.876;12.300;2023-05-10T00:39:42;3.77;;;2.77;;
3726;SDS011;1879;45.876;12.300;2023-05-10T00:42:09;3.00;;;2.70;;
3726;SDS011;1879;45.876;12.300;2023-05-10T00:44:35;3.50;;;3.20;;
3726;SDS011;1879;45.876;12.300;2023-05-10T00:47:03;3.10;;;2.80;;
3726;SDS011;1879;45.876;12.300;2023-05-10T00:49:30;3.00;;;2.40;;
3726;SDS011;1879;45.876;12.300;2023-05-10T00:51:57;3.03;;;2.73;;
3726;SDS011;1879;45.876;12.300;2023-05-10T00:54:24;3.20;;;2.90;;
3726;SDS011;1879;45.876;12.300;2023-05-10T00:56:53;3.10;;;2.80;;
3726;SDS011;1879;45.876;12.300;2023-05-10T00:59:22;5.70;;;3.20;;
3726;SDS011;1879;45.876;12.300;2023-05-10T01:01:50;3.30;;;2.70;;
3726;SDS011;1879;45.876;12.300;2023-05-10T01:04:17;4.10;;;2.90;;
3726;SDS011;1879;45.876;12.300;2023-05-10T01:06:45;3.60;;;2.70;;
3726;SDS011;1879;45.876;12.300;2023-05-10T01:09:12;3.90;;;2.90;;
3726;SDS011;1879;45.876;12.300;2023-05-10T01:11:39;2.70;;;2.50;;
3726;SDS011;1879;45.876;12.300;2023-05-10T01:14:08;3.03;;;2.77;;
3726;SDS011;1879;45.876;12.300;2023-05-10T01:16:36;2.83;;;2.63;;
3726;SDS011;1879;45.876;12.300;2023-05-10T01:19:04;3.20;;;2.90;;
3726;SDS011;1879;45.876;12.300;2023-05-10T01:21:38;3.00;;;2.70;;
3726;SDS011;1879;45.876;12.300;2023-05-10T01:27:21;2.83;;;2.63;;
3726;SDS011;1879;45.876;12.300;2023-05-10T01:30:07;3.03;;;2.73;;
3726;SDS011;1879;45.876;12.300;2023-05-10T01:32:51;3.30;;;3.00;;
3726;SDS011;1879;45.876;12.300;2023-05-10T01:35:23;3.20;;;2.90;;
3726;SDS011;1879;45.876;12.300;2023-05-10T01:37:59;3.50;;;2.80;;
3726;SDS011;1879;45.876;12.300;2023-05-10T01:40:32;4.43;;;2.90;;
3726;SDS011;1879;45.876;12.300;2023-05-10T01:43:05;3.97;;;2.77;;
3726;SDS011;1879;45.876;12.300;2023-05-10T01:45:41;4.70;;;3.20;;
3726;SDS011;1879;45.876;12.300;2023-05-10T01:48:23;4.00;;;2.80;;
3726;SDS011;1879;45.876;12.300;2023-05-10T01:50:53;3.17;;;2.50;;
3726;SDS011;1879;45.876;12.300;2023-05-10T01:53:21;4.73;;;3.20;;
3726;SDS011;1879;45.876;12.300;2023-05-10T01:55:51;3.50;;;3.00;;
3726;SDS011;1879;45.876;12.300;2023-05-10T01:58:21;3.20;;;2.80;;
3726;SDS011;1879;45.876;12.300;2023-05-10T02:00:53;4.53;;;2.80;;
3726;SDS011;1879;45.876;12.300;2023-05-10T02:03:23;4.40;;;3.20;;
3726;SDS011;1879;45.876;12.300;2023-05-10T02:05:52;3.37;;;3.07;;
3726;SDS011;1879;45.876;12.300;2023-05-10T02:08:20;3.77;;;3.00;;
3726;SDS011;1879;45.876;12.300;2023-05-10T02:10:49;3.30;;;2.73;;
3726;SDS011;1879;45.876;12.300;2023-05-10T02:13:18;3.60;;;2.87;;
3726;SDS011;1879;45.876;12.300;2023-05-10T02:15:48;3.50;;;2.93;;
3726;SDS011;1879;45.876;12.300;2023-05-10T02:18:16;3.17;;;2.87;;
3726;SDS011;1879;45.876;12.300;2023-05-10T02:20:46;2.93;;;2.63;;
3726;SDS011;1879;45.876;12.300;2023-05-10T02:23:16;3.77;;;3.27;;
3726;SDS011;1879;45.876;12.300;2023-05-10T02:25:44;3.50;;;3.20;;
3726;SDS011;1879;45.876;12.300;2023-05-10T02:28:14;3.40;;;3.10;;
3726;SDS011;1879;45.876;12.300;2023-05-10T02:30:41;3.00;;;2.80;;
3726;SDS011;1879;45.876;12.300;2023-05-10T02:33:10;3.00;;;2.80;;
3726;SDS011;1879;45.876;12.300;2023-05-10T02:35:38;4.13;;;2.90;;
3726;SDS011;1879;45.876;12.300;2023-05-10T02:38:07;3.40;;;3.10;;
3726;SDS011;1879;45.876;12.300;2023-05-10T02:40:34;3.80;;;3.00;;
3726;SDS011;1879;45.876;12.300;2023-05-10T02:43:03;3.23;;;2.83;;
3726;SDS011;1879;45.876;12.300;2023-05-10T02:45:32;4.30;;;3.20;;
3726;SDS011;1879;45.876;12.300;2023-05-10T02:48:04;3.27;;;2.97;;
3726;SDS011;1879;45.876;12.300;2023-05-10T02:50:32;3.57;;;3.27;;
3726;SDS011;1879;45.876;12.300;2023-05-10T02:53:00;3.33;;;3.03;;
3726;SDS011;1879;45.876;12.300;2023-05-10T02:55:35;3.77;;;3.00;;
3726;SDS011;1879;45.876;12.300;2023-05-10T02:58:04;4.03;;;3.40;;
3726;SDS011;1879;45.876;12.300;2023-05-10T03:00:32;3.10;;;2.80;;
3726;SDS011;1879;45.876;12.300;2023-05-10T03:03:00;3.03;;;2.73;;
3726;SDS011;1879;45.876;12.300;2023-05-10T03:05:27;4.33;;;2.60;;
3726;SDS011;1879;45.876;12.300;2023-05-10T03:07:54;3.53;;;3.10;;
3726;SDS011;1879;45.876;12.300;2023-05-10T03:10:22;3.97;;;3.40;;
3726;SDS011;1879;45.876;12.300;2023-05-10T03:13:06;3.63;;;3.07;;
3726;SDS011;1879;45.876;12.300;2023-05-10T03:15:42;3.50;;;3.20;;
3726;SDS011;1879;45.876;12.300;2023-05-10T03:18:17;3.40;;;3.10;;
3726;SDS011;1879;45.876;12.300;2023-05-10T03:20:48;3.23;;;2.93;;
3726;SDS011;1879;45.876;12.300;2023-05-10T03:23:20;3.10;;;2.80;;
3726;SDS011;1879;45.876;12.300;2023-05-10T03:25:55;5.30;;;3.43;;
3726;SDS011;1879;45.876;12.300;2023-05-10T03:28:24;3.17;;;2.87;;
3726;SDS011;1879;45.876;12.300;2023-05-10T03:30:52;4.23;;;3.40;;
3726;SDS011;1879;45.876;12.300;2023-05-10T03:33:20;4.13;;;3.70;;
3726;SDS011;1879;45.876;12.300;2023-05-10T03:35:47;4.93;;;2.97;;
3726;SDS011;1879;45.876;12.300;2023-05-10T03:38:14;4.60;;;3.13;;
3726;SDS011;1879;45.876;12.300;2023-05-10T03:40:41;3.77;;;3.47;;
3726;SDS011;1879;45.876;12.300;2023-05-10T03:43:08;3.63;;;3.30;;
3726;SDS011;1879;45.876;12.300;2023-05-10T03:45:36;3.73;;;3.27;;
3726;SDS011;1879;45.876;12.300;2023-05-10T03:48:04;4.27;;;3.47;;
3726;SDS011;1879;45.876;12.300;2023-05-10T03:50:31;3.40;;;2.80;;
3726;SDS011;1879;45.876;12.300;2023-05-10T03:52:58;4.03;;;3.73;;
3726;SDS011;1879;45.876;12.300;2023-05-10T03:55:25;4.70;;;3.60;;
3726;SDS011;1879;45.876;12.300;2023-05-10T03:57:53;4.10;;;3.60;;
3726;SDS011;1879;45.876;12.300;2023-05-10T04:00:20;4.90;;;3.50;;
3726;SDS011;1879;45.876;12.300;2023-05-10T04:02:48;3.30;;;3.00;;
3726;SDS011;1879;45.876;12.300;2023-05-10T04:05:15;4.77;;;3.80;;
3726;SDS011;1879;45.876;12.300;2023-05-10T04:07:42;3.73;;;3.30;;
3726;SDS011;1879;45.876;12.300;2023-05-10T04:10:10;3.50;;;3.20;;
3726;SDS011;1879;45.876;12.300;2023-05-10T04:12:37;3.33;;;3.07;;
3726;SDS011;1879;45.876;12.300;2023-05-10T04:15:04;4.60;;;3.60;;
3726;SDS011;1879;45.876;12.300;2023-05-10T04:17:32;4.83;;;3.57;;
3726;SDS011;1879;45.876;12.300;2023-05-10T04:20:01;3.47;;;3.17;;
3726;SDS011;1879;45.876;12.300;2023-05-10T04:22:28;4.97;;;4.00;;
3726;SDS011;1879;45.876;12.300;2023-05-10T04:24:55;4.40;;;3.27;;
3726;SDS011;1879;45.876;12.300;2023-05-10T04:27:22;3.87;;;3.57;;
3726;SDS011;1879;45.876;12.300;2023-05-10T04:29:49;3.93;;;3.23;;
3726;SDS011;1879;45.876;12.300;2023-05-10T04:32:16;4.07;;;3.10;;
3726;SDS011;1879;45.876;12.300;2023-05-10T04:34:44;4.20;;;3.80;;
3726;SDS011;1879;45.876;12.300;2023-05-10T04:37:12;3.90;;;3.57;;
3726;SDS011;1879;45.876;12.300;2023-05-10T04:39:39;7.40;;;4.00;;
3726;SDS011;1879;45.876;12.300;2023-05-10T04:42:06;3.90;;;3.33;;
3726;SDS011;1879;45.876;12.300;2023-05-10T04:44:33;4.70;;;3.90;;
3726;SDS011;1879;45.876;12.300;2023-05-10T04:47:00;5.90;;;3.90;;
3726;SDS011;1879;45.876;12.300;2023-05-10T04:49:28;4.60;;;3.77;;
3726;SDS011;1879;45.876;12.300;2023-05-10T04:51:55;4.53;;;4.13;;
3726;SDS011;1879;45.876;12.300;2023-05-10T04:54:23;4.40;;;4.00;;
3726;SDS011;1879;45.876;12.300;2023-05-10T04:56:50;4.50;;;4.10;;
3726;SDS011;1879;45.876;12.300;2023-05-10T04:59:17;4.87;;;4.10;;
3726;SDS011;1879;45.876;12.300;2023-05-10T05:01:44;3.50;;;3.20;;
3726;SDS011;1879;45.876;12.300;2023-05-10T05:04:11;4.30;;;3.20;;
3726;SDS011;1879;45.876;12.300;2023-05-10T05:06:39;6.37;;;4.87;;
3726;SDS011;1879;45.876;12.300;2023-05-10T05:09:06;6.10;;;5.60;;
3726;SDS011;1879;45.876;12.300;2023-05-10T05:11:36;6.50;;;5.53;;
3726;SDS011;1879;45.876;12.300;2023-05-10T05:14:03;4.77;;;4.03;;
3726;SDS011;1879;45.876;12.300;2023-05-10T05:16:30;4.67;;;3.83;;
3726;SDS011;1879;45.876;12.300;2023-05-10T05:18:57;7.03;;;6.30;;
3726;SDS011;1879;45.876;12.300;2023-05-10T05:21:25;6.07;;;5.57;;
3726;SDS011;1879;45.876;12.300;2023-05-10T05:23:53;7.27;;;6.57;;
3726;SDS011;1879;45.876;12.300;2023-05-10T05:26:20;5.63;;;5.13;;
3726;SDS011;1879;45.876;12.300;2023-05-10T05:28:49;4.47;;;4.07;;
3726;SDS011;1879;45.876;12.300;2023-05-10T05:31:18;7.40;;;4.20;;
3726;SDS011;1879;45.876;12.300;2023-05-10T05:33:45;4.87;;;3.63;;
3726;SDS011;1879;45.876;12.300;2023-05-10T05:36:13;5.00;;;4.60;;
3726;SDS011;1879;45.876;12.300;2023-05-10T05:38:40;5.10;;;4.17;;
3726;SDS011;1879;45.876;12.300;2023-05-10T05:41:07;4.47;;;4.07;;
3726;SDS011;1879;45.876;12.300;2023-05-10T05:49:07;8.83;;;3.90;;
3726;SDS011;1879;45.876;12.300;2023-05-10T05:51:38;3.83;;;3.53;;
3726;SDS011;1879;45.876;12.300;2023-05-10T05:54:13;4.60;;;4.20;;
3726;SDS011;1879;45.876;12.300;2023-05-10T05:56:48;5.40;;;4.50;;
3726;SDS011;1879;45.876;12.300;2023-05-10T05:59:17;5.40;;;4.30;;
3726;SDS011;1879;45.876;12.300;2023-05-10T06:01:50;4.83;;;4.43;;
3726;SDS011;1879;45.876;12.300;2023-05-10T06:04:20;5.13;;;4.63;;
3726;SDS011;1879;45.876;12.300;2023-05-10T06:06:47;5.07;;;4.60;;
3726;SDS011;1879;45.876;12.300;2023-05-10T06:09:14;4.83;;;4.43;;
3726;SDS011;1879;45.876;12.300;2023-05-10T06:11:54;5.47;;;4.13;;
3726;SDS011;1879;45.876;12.300;2023-05-10T06:14:22;5.10;;;4.60;;
3726;SDS011;1879;45.876;12.300;2023-05-10T06:16:50;5.77;;;4.53;;
3726;SDS011;1879;45.876;12.300;2023-05-10T06:19:18;5.10;;;4.60;;
3726;SDS011;1879;45.876;12.300;2023-05-10T06:21:45;4.77;;;4.37;;
3726;SDS011;1879;45.876;12.300;2023-05-10T06:24:14;5.80;;;5.07;;
3726;SDS011;1879;45.876;12.300;2023-05-10T06:26:41;5.43;;;4.90;;
3726;SDS011;1879;45.876;12.300;2023-05-10T06:29:08;5.00;;;4.10;;
3726;SDS011;1879;45.876;12.300;2023-05-10T06:31:36;6.23;;;4.83;;
3726;SDS011;1879;45.876;12.300;2023-05-10T06:34:05;6.00;;;4.97;;
3726;SDS011;1879;45.876;12.300;2023-05-10T06:36:35;4.90;;;4.40;;
3726;SDS011;1879;45.876;12.300;2023-05-10T06:39:05;5.57;;;5.17;;
3726;SDS011;1879;45.876;12.300;2023-05-10T06:41:32;5.83;;;5.23;;
3726;SDS011;1879;45.876;12.300;2023-05-10T06:43:59;8.07;;;4.60;;
3726;SDS011;1879;45.876;12.300;2023-05-10T06:46:26;6.63;;;4.73;;
3726;SDS011;1879;45.876;12.300;2023-05-10T06:48:55;5.43;;;4.93;;
3726;SDS011;1879;45.876;12.300;2023-05-10T06:51:23;5.10;;;4.60;;
3726;SDS011;1879;45.876;12.300;2023-05-10T06:53:51;5.40;;;4.90;;
3726;SDS011;1879;45.876;12.300;2023-05-10T06:56:18;5.37;;;4.90;;
3726;SDS011;1879;45.876;12.300;2023-05-10T06:58:47;5.67;;;5.17;;
3726;SDS011;1879;45.876;12.300;2023-05-10T07:01:44;5.23;;;4.70;;
3726;SDS011;1879;45.876;12.300;2023-05-10T07:07:04;6.37;;;5.30;;
3726;SDS011;1879;45.876;12.300;2023-05-10T07:09:49;6.07;;;5.47;;
3726;SDS011;1879;45.876;12.300;2023-05-10T07:12:17;8.47;;;5.57;;
3726;SDS011;1879;45.876;12.300;2023-05-10T07:14:44;6.13;;;4.70;;
3726;SDS011;1879;45.876;12.300;2023-05-10T07:17:11;5.20;;;4.70;;
3726;SDS011;1879;45.876;12.300;2023-05-10T07:19:44;5.10;;;4.50;;
3726;SDS011;1879;45.876;12.300;2023-05-10T07:25:20;5.27;;;4.77;;
3726;SDS011;1879;45.876;12.300;2023-05-10T07:31:02;5.03;;;4.47;;
3726;SDS011;1879;45.876;12.300;2023-05-10T07:33:29;4.30;;;3.90;;
3726;SDS011;1879;45.876;12.300;2023-05-10T07:35:56;6.40;;;5.50;;
3726;SDS011;1879;45.876;12.300;2023-05-10T07:38:24;7.93;;;4.67;;
3726;SDS011;1879;45.876;12.300;2023-05-10T07:40:55;4.63;;;4.23;;
3726;SDS011;1879;45.876;12.300;2023-05-10T07:43:22;4.80;;;4.30;;
3726;SDS011;1879;45.876;12.300;2023-05-10T07:45:49;4.60;;;4.20;;
3726;SDS011;1879;45.876;12.300;2023-05-10T07:48:16;4.90;;;4.50;;
3726;SDS011;1879;45.876;12.300;2023-05-10T07:50:43;6.33;;;5.20;;
3726;SDS011;1879;45.876;12.300;2023-05-10T07:53:10;4.33;;;4.00;;
3726;SDS011;1879;45.876;12.300;2023-05-10T07:55:38;4.87;;;4.30;;
3726;SDS011;1879;45.876;12.300;2023-05-10T07:58:06;4.63;;;4.20;;
3726;SDS011;1879;45.876;12.300;2023-05-10T08:00:33;4.40;;;4.00;;
3726;SDS011;1879;45.876;12.300;2023-05-10T08:03:00;6.70;;;4.07;;
3726;SDS011;1879;45.876;12.300;2023-05-10T08:05:27;6.23;;;3.97;;
3726;SDS011;1879;45.876;12.300;2023-05-10T08:07:54;5.17;;;4.67;;
3726;SDS011;1879;45.876;12.300;2023-05-10T08:10:32;5.83;;;4.73;;
3726;SDS011;1879;45.876;12.300;2023-05-10T08:12:59;4.80;;;4.30;;
3726;SDS011;1879;45.876;12.300;2023-05-10T08:15:27;4.70;;;4.30;;
3726;SDS011;1879;45.876;12.300;2023-05-10T08:17:54;5.00;;;4.43;;
3726;SDS011;1879;45.876;12.300;2023-05-10T08:20:21;5.90;;;4.50;;
3726;SDS011;1879;45.876;12.300;2023-05-10T08:22:48;7.13;;;5.50;;
3726;SDS011;1879;45.876;12.300;2023-05-10T08:25:15;5.70;;;5.20;;
3726;SDS011;1879;45.876;12.300;2023-05-10T08:27:42;5.77;;;5.20;;
3726;SDS011;1879;45.876;12.300;2023-05-10T08:30:10;6.00;;;5.40;;
3726;SDS011;1879;45.876;12.300;2023-05-10T08:32:39;6.00;;;5.40;;
3726;SDS011;1879;45.876;12.300;2023-05-10T08:35:06;7.63;;;5.47;;
3726;SDS011;1879;45.876;12.300;2023-05-10T08:37:33;8.03;;;5.77;;
3726;SDS011;1879;45.876;12.300;2023-05-10T08:40:00;7.70;;;6.20;;
3726;SDS011;1879;45.876;12.300;2023-05-10T08:42:28;6.20;;;5.60;;
3726;SDS011;1879;45.876;12.300;2023-05-10T08:45:01;6.90;;;6.30;;
3726;SDS011;1879;45.876;12.300;2023-05-10T08:47:29;7.00;;;6.30;;
3726;SDS011;1879;45.876;12.300;2023-05-10T08:49:58;6.47;;;5.80;;
3726;SDS011;1879;45.876;12.300;2023-05-10T08:52:26;5.90;;;5.27;;
3726;SDS011;1879;45.876;12.300;2023-05-10T08:54:54;6.40;;;5.60;;
3726;SDS011;1879;45.876;12.300;2023-05-10T08:57:22;5.80;;;5.30;;
3726;SDS011;1879;45.876;12.300;2023-05-10T08:59:49;5.80;;;5.17;;
3726;SDS011;1879;45.876;12.300;2023-05-10T09:02:16;5.70;;;5.10;;
3726;SDS011;1879;45.876;12.300;2023-05-10T09:04:46;6.50;;;5.90;;
3726;SDS011;1879;45.876;12.300;2023-05-10T09:07:15;6.00;;;5.50;;
3726;SDS011;1879;45.876;12.300;2023-05-10T09:09:43;10.53;;;6.37;;
3726;SDS011;1879;45.876;12.300;2023-05-10T09:12:12;6.10;;;5.60;;
3726;SDS011;1879;45.876;12.300;2023-05-10T09:14:40;7.00;;;6.33;;
3726;SDS011;1879;45.876;12.300;2023-05-10T09:17:10;7.00;;;6.30;;
3726;SDS011;1879;45.876;12.300;2023-05-10T09:19:37;5.40;;;5.00;;
3726;SDS011;1879;45.876;12.300;2023-05-10T09:22:04;5.23;;;4.73;;
3726;SDS011;1879;45.876;12.300;2023-05-10T09:24:33;6.13;;;5.53;;
3726;SDS011;1879;45.876;12.300;2023-05-10T09:27:01;7.03;;;5.87;;
3726;SDS011;1879;45.876;12.300;2023-05-10T09:29:38;8.13;;;5.90;;
3726;SDS011;1879;45.876;12.300;2023-05-10T09:32:05;6.00;;;5.40;;
3726;SDS011;1879;45.876;12.300;2023-05-10T09:34:33;10.97;;;9.33;;
3726;SDS011;1879;45.876;12.300;2023-05-10T09:37:00;6.70;;;5.90;;
3726;SDS011;1879;45.876;12.300;2023-05-10T09:39:37;5.97;;;5.10;;
3726;SDS011;1879;45.876;12.300;2023-05-10T09:42:06;6.00;;;5.20;;
3726;SDS011;1879;45.876;12.300;2023-05-10T09:44:34;5.67;;;5.17;;
3726;SDS011;1879;45.876;12.300;2023-05-10T09:47:03;6.60;;;5.10;;
3726;SDS011;1879;45.876;12.300;2023-05-10T09:49:30;6.03;;;5.43;;
3726;SDS011;1879;45.876;12.300;2023-05-10T09:52:02;6.03;;;5.03;;
3726;SDS011;1879;45.876;12.300;2023-05-10T09:54:30;8.87;;;6.10;;
3726;SDS011;1879;45.876;12.300;2023-05-10T09:56:59;6.83;;;5.60;;
3726;SDS011;1879;45.876;12.300;2023-05-10T09:59:26;6.43;;;5.57;;
3726;SDS011;1879;45.876;12.300;2023-05-10T10:01:56;6.13;;;5.53;;
3726;SDS011;1879;45.876;12.300;2023-05-10T10:04:23;6.23;;;5.63;;
3726;SDS011;1879;45.876;12.300;2023-05-10T10:07:00;7.93;;;6.20;;
3726;SDS011;1879;45.876;12.300;2023-05-10T10:09:29;7.03;;;6.33;;
3726;SDS011;1879;45.876;12.300;2023-05-10T10:11:56;7.10;;;6.50;;
3726;SDS011;1879;45.876;12.300;2023-05-10T10:14:25;7.87;;;6.10;;
3726;SDS011;1879;45.876;12.300;2023-05-10T10:16:52;7.27;;;6.47;;
3726;SDS011;1879;45.876;12.300;2023-05-10T10:19:20;7.60;;;6.80;;
3726;SDS011;1879;45.876;12.300;2023-05-10T10:21:47;8.13;;;7.43;;
3726;SDS011;1879;45.876;12.300;2023-05-10T10:24:15;9.33;;;7.00;;
3726;SDS011;1879;45.876;12.300;2023-05-10T10:26:42;8.83;;;7.40;;
3726;SDS011;1879;45.876;12.300;2023-05-10T10:29:22;7.93;;;7.07;;
3726;SDS011;1879;45.876;12.300;2023-05-10T10:32:06;6.87;;;6.27;;
3726;SDS011;1879;45.876;12.300;2023-05-10T10:34:40;6.17;;;5.57;;
3726;SDS011;1879;45.876;12.300;2023-05-10T10:37:09;5.97;;;5.37;;
3726;SDS011;1879;45.876;12.300;2023-05-10T10:39:37;7.80;;;5.10;;
3726;SDS011;1879;45.876;12.300;2023-05-10T10:42:04;6.60;;;5.30;;
3726;SDS011;1879;45.876;12.300;2023-05-10T10:44:36;6.30;;;4.40;;
3726;SDS011;1879;45.876;12.300;2023-05-10T10:47:28;6.20;;;5.50;;
3726;SDS011;1879;45.876;12.300;2023-05-10T10:50:02;5.37;;;4.87;;
3726;SDS011;1879;45.876;12.300;2023-05-10T10:52:31;6.07;;;5.20;;
3726;SDS011;1879;45.876;12.300;2023-05-10T10:55:00;6.53;;;5.77;;
3726;SDS011;1879;45.876;12.300;2023-05-10T10:57:31;5.97;;;5.37;;
3726;SDS011;1879;45.876;12.300;2023-05-10T11:02:52;6.53;;;5.80;;
3726;SDS011;1879;45.876;12.300;2023-05-10T11:05:33;7.50;;;6.60;;
3726;SDS011;1879;45.876;12.300;2023-05-10T11:08:18;7.20;;;6.47;;
3726;SDS011;1879;45.876;12.300;2023-05-10T11:10:53;10.87;;;9.80;;
3726;SDS011;1879;45.876;12.300;2023-05-10T11:13:32;7.73;;;7.03;;
3726;SDS011;1879;45.876;12.300;2023-05-10T11:16:12;7.43;;;6.73;;
3726;SDS011;1879;45.876;12.300;2023-05-10T11:18:47;8.20;;;7.40;;
3726;SDS011;1879;45.876;12.300;2023-05-10T11:21:21;9.03;;;7.40;;
3726;SDS011;1879;45.876;12.300;2023-05-10T11:23:49;7.90;;;6.83;;
3726;SDS011;1879;45.876;12.300;2023-05-10T11:26:18;7.53;;;6.83;;
3726;SDS011;1879;45.876;12.300;2023-05-10T11:28:48;9.30;;;7.27;;
3726;SDS011;1879;45.876;12.300;2023-05-10T11:31:18;7.20;;;6.50;;
3726;SDS011;1879;45.876;12.300;2023-05-10T11:33:53;9.20;;;8.30;;
3726;SDS011;1879;45.876;12.300;2023-05-10T11:36:21;8.57;;;7.60;;
3726;SDS011;1879;45.876;12.300;2023-05-10T11:38:50;8.60;;;7.80;;
3726;SDS011;1879;45.876;12.300;2023-05-10T11:41:17;8.40;;;7.60;;
3726;SDS011;1879;45.876;12.300;2023-05-10T11:43:50;8.37;;;7.57;;
3726;SDS011;1879;45.876;12.300;2023-05-10T11:46:22;8.60;;;7.70;;
3726;SDS011;1879;45.876;12.300;2023-05-10T11:48:58;10.33;;;8.67;;
3726;SDS011;1879;45.876;12.300;2023-05-10T11:51:29;8.40;;;7.60;;
3726;SDS011;1879;45.876;12.300;2023-05-10T11:53:59;9.73;;;8.73;;
3726;SDS011;1879;45.876;12.300;2023-05-10T11:56:26;9.67;;;8.67;;
3726;SDS011;1879;45.876;12.300;2023-05-10T11:58:53;8.67;;;7.80;;
3726;SDS011;1879;45.876;12.300;2023-05-10T12:01:23;8.50;;;7.53;;
3726;SDS011;1879;45.876;12.300;2023-05-10T12:03:51;8.20;;;7.40;;
3726;SDS011;1879;45.876;12.300;2023-05-10T12:06:20;9.40;;;8.50;;
3726;SDS011;1879;45.876;12.300;2023-05-10T12:08:47;9.17;;;7.40;;
3726;SDS011;1879;45.876;12.300;2023-05-10T12:11:17;8.97;;;8.07;;
3726;SDS011;1879;45.876;12.300;2023-05-10T12:13:46;8.47;;;7.67;;
3726;SDS011;1879;45.876;12.300;2023-05-10T12:16:15;8.73;;;7.90;;
3726;SDS011;1879;45.876;12.300;2023-05-10T12:18:44;9.63;;;8.50;;
3726;SDS011;1879;45.876;12.300;2023-05-10T12:21:11;8.63;;;7.60;;
3726;SDS011;1879;45.876;12.300;2023-05-10T12:23:38;7.03;;;6.43;;
3726;SDS011;1879;45.876;12.300;2023-05-10T12:26:06;9.60;;;8.60;;
3726;SDS011;1879;45.876;12.300;2023-05-10T12:28:35;8.60;;;7.80;;
3726;SDS011;1879;45.876;12.300;2023-05-10T12:31:03;8.27;;;7.07;;
3726;SDS011;1879;45.876;12.300;2023-05-10T12:33:35;8.87;;;7.97;;
3726;SDS011;1879;45.876;12.300;2023-05-10T12:36:06;8.30;;;7.40;;
3726;SDS011;1879;45.876;12.300;2023-05-10T12:38:33;8.80;;;7.90;;
3726;SDS011;1879;45.876;12.300;2023-05-10T12:41:03;8.43;;;7.63;;
3726;SDS011;1879;45.876;12.300;2023-05-10T12:43:32;8.60;;;7.70;;
3726;SDS011;1879;45.876;12.300;2023-05-10T12:46:04;9.17;;;8.30;;
3726;SDS011;1879;45.876;12.300;2023-05-10T12:48:32;8.50;;;7.70;;
3726;SDS011;1879;45.876;12.300;2023-05-10T12:51:00;10.73;;;9.03;;
3726;SDS011;1879;45.876;12.300;2023-05-10T12:53:28;9.93;;;8.90;;
3726;SDS011;1879;45.876;12.300;2023-05-10T12:55:56;10.50;;;7.80;;
3726;SDS011;1879;45.876;12.300;2023-05-10T12:58:23;7.50;;;6.80;;
3726;SDS011;1879;45.876;12.300;2023-05-10T13:00:50;6.93;;;6.30;;
3726;SDS011;1879;45.876;12.300;2023-05-10T13:03:17;8.03;;;7.03;;
3726;SDS011;1879;45.876;12.300;2023-05-10T13:05:45;9.10;;;7.50;;
3726;SDS011;1879;45.876;12.300;2023-05-10T13:08:12;8.27;;;7.07;;
3726;SDS011;1879;45.876;12.300;2023-05-10T13:10:40;8.20;;;7.40;;
3726;SDS011;1879;45.876;12.300;2023-05-10T13:13:09;8.00;;;7.30;;
3726;SDS011;1879;45.876;12.300;2023-05-10T13:15:36;10.90;;;8.40;;
3726;SDS011;1879;45.876;12.300;2023-05-10T13:18:03;9.40;;;8.50;;
3726;SDS011;1879;45.876;12.300;2023-05-10T13:20:30;7.67;;;6.97;;
3726;SDS011;1879;45.876;12.300;2023-05-10T13:22:57;8.40;;;7.57;;
3726;SDS011;1879;45.876;12.300;2023-05-10T13:25:25;9.90;;;8.90;;
3726;SDS011;1879;45.876;12.300;2023-05-10T13:27:54;9.03;;;8.20;;
3726;SDS011;1879;45.876;12.300;2023-05-10T13:30:21;8.47;;;7.67;;
3726;SDS011;1879;45.876;12.300;2023-05-10T13:32:48;9.50;;;8.43;;
3726;SDS011;1879;45.876;12.300;2023-05-10T13:35:15;11.67;;;9.87;;
3726;SDS011;1879;45.876;12.300;2023-05-10T13:37:42;10.63;;;9.63;;
3726;SDS011;1879;45.876;12.300;2023-05-10T13:40:10;10.87;;;9.77;;
3726;SDS011;1879;45.876;12.300;2023-05-10T13:42:37;11.77;;;10.50;;
3726;SDS011;1879;45.876;12.300;2023-05-10T13:45:06;10.73;;;9.83;;
3726;SDS011;1879;45.876;12.300;2023-05-10T13:47:34;13.17;;;11.80;;
3726;SDS011;1879;45.876;12.300;2023-05-10T13:50:01;13.40;;;12.20;;
3726;SDS011;1879;45.876;12.300;2023-05-10T13:52:28;12.87;;;11.67;;
3726;SDS011;1879;45.876;12.300;2023-05-10T13:54:55;13.17;;;11.87;;
3726;SDS011;1879;45.876;12.300;2023-05-10T13:57:22;12.00;;;11.00;;
3726;SDS011;1879;45.876;12.300;2023-05-10T13:59:49;13.93;;;12.63;;
3726;SDS011;1879;45.876;12.300;2023-05-10T14:02:18;11.83;;;9.47;;
3726;SDS011;1879;45.876;12.300;2023-05-10T14:04:45;11.10;;;10.10;;
3726;SDS011;1879;45.876;12.300;2023-05-10T14:07:13;10.47;;;9.37;;
3726;SDS011;1879;45.876;12.300;2023-05-10T14:09:42;10.57;;;9.57;;
3726;SDS011;1879;45.876;12.300;2023-05-10T14:12:09;10.00;;;9.00;;
3726;SDS011;1879;45.876;12.300;2023-05-10T14:14:36;9.43;;;8.43;;
3726;SDS011;1879;45.876;12.300;2023-05-10T14:17:04;10.60;;;9.17;;
3726;SDS011;1879;45.876;12.300;2023-05-10T14:19:32;9.20;;;8.30;;
3726;SDS011;1879;45.876;12.300;2023-05-10T14:22:02;9.00;;;8.20;;
3726;SDS011;1879;45.876;12.300;2023-05-10T14:24:29;7.70;;;7.00;;
3726;SDS011;1879;45.876;12.300;2023-05-10T14:26:56;8.63;;;6.90;;
3726;SDS011;1879;45.876;12.300;2023-05-10T14:29:23;8.80;;;7.77;;
3726;SDS011;1879;45.876;12.300;2023-05-10T14:31:50;10.43;;;7.80;;
3726;SDS011;1879;45.876;12.300;2023-05-10T14:34:37;8.33;;;7.53;;
3726;SDS011;1879;45.876;12.300;2023-05-10T14:37:04;8.33;;;7.30;;
3726;SDS011;1879;45.876;12.300;2023-05-10T14:39:31;9.33;;;8.43;;
3726;SDS011;1879;45.876;12.300;2023-05-10T14:41:59;8.40;;;7.43;;
3726;SDS011;1879;45.876;12.300;2023-05-10T14:44:27;7.70;;;7.00;;
3726;SDS011;1879;45.876;12.300;2023-05-10T14:46:54;8.50;;;7.70;;
3726;SDS011;1879;45.876;12.300;2023-05-10T14:49:21;8.20;;;7.37;;
3726;SDS011;1879;45.876;12.300;2023-05-10T14:51:52;7.90;;;7.20;;
3726;SDS011;1879;45.876;12.300;2023-05-10T14:54:21;9.57;;;8.20;;
3726;SDS011;1879;45.876;12.300;2023-05-10T14:56:47;7.83;;;7.03;;
3726;SDS011;1879;45.876;12.300;2023-05-10T14:59:15;8.87;;;7.97;;
3726;SDS011;1879;45.876;12.300;2023-05-10T15:01:42;10.83;;;8.63;;
3726;SDS011;1879;45.876;12.300;2023-05-10T15:04:09;8.57;;;7.67;;
3726;SDS011;1879;45.876;12.300;2023-05-10T15:06:37;8.60;;;7.70;;
3726;SDS011;1879;45.876;12.300;2023-05-10T15:09:09;8.67;;;7.90;;
3726;SDS011;1879;45.876;12.300;2023-05-10T15:11:36;8.20;;;7.40;;
3726;SDS011;1879;45.876;12.300;2023-05-10T15:14:03;8.03;;;7.23;;
3726;SDS011;1879;45.876;12.300;2023-05-10T15:16:30;8.50;;;7.70;;
3726;SDS011;1879;45.876;12.300;2023-05-10T15:18:57;8.27;;;7.57;;
3726;SDS011;1879;45.876;12.300;2023-05-10T15:21:23;8.10;;;7.20;;
3726;SDS011;1879;45.876;12.300;2023-05-10T15:23:50;8.83;;;7.93;;
3726;SDS011;1879;45.876;12.300;2023-05-10T15:26:19;7.80;;;7.10;;
3726;SDS011;1879;45.876;12.300;2023-05-10T15:28:47;9.50;;;7.67;;
3726;SDS011;1879;45.876;12.300;2023-05-10T15:31:14;9.13;;;8.23;;